createdAt,value
2023-02-03T00:01:26.242Z,12.80
2023-02-03T00:03:57.510Z,11.50
2023-02-03T00:06:28.312Z,12.80
2023-02-03T00:09:01.912Z,11.30
2023-02-03T00:11:32.860Z,16.10
2023-02-03T00:14:05.524Z,11.90
2023-02-03T00:16:36.833Z,12.00
2023-02-03T00:19:07.925Z,11.70
2023-02-03T00:21:38.970Z,13.30
2023-02-03T00:24:10.698Z,10.20
2023-02-03T00:26:43.811Z,12.10
2023-02-03T00:29:15.697Z,12.50
2023-02-03T00:31:46.276Z,12.70
2023-02-03T00:34:17.755Z,10.90
2023-02-03T00:36:48.693Z,11.20
2023-02-03T00:39:19.940Z,10.50
2023-02-03T00:41:50.682Z,11.00
2023-02-03T00:44:22.327Z,12.30
2023-02-03T00:46:53.259Z,12.50
2023-02-03T00:49:24.511Z,10.80
2023-02-03T00:51:55.148Z,12.30
2023-02-03T00:54:26.189Z,12.70
2023-02-03T00:56:56.831Z,11.00
2023-02-03T00:59:28.105Z,12.20
2023-02-03T01:01:58.829Z,10.00
2023-02-03T01:04:30.039Z,11.00
2023-02-03T01:07:00.669Z,13.80
2023-02-03T01:09:34.300Z,11.70
2023-02-03T01:14:34.469Z,12.60
2023-02-03T01:17:08.528Z,12.70
2023-02-03T01:19:39.363Z,12.70
2023-02-03T01:22:10.294Z,11.70
2023-02-03T01:24:41.160Z,13.50
2023-02-03T01:27:12.190Z,12.70
2023-02-03T01:29:43.060Z,12.80
2023-02-03T01:32:13.780Z,15.00
2023-02-03T01:34:44.498Z,12.90
2023-02-03T01:37:17.559Z,13.10
2023-02-03T01:39:48.513Z,13.10
2023-02-03T01:42:19.205Z,12.00
2023-02-03T01:44:51.419Z,11.30
2023-02-03T01:47:26.862Z,11.20
2023-02-03T01:49:59.943Z,12.30
2023-02-03T01:52:31.185Z,12.70
2023-02-03T01:55:03.845Z,11.00
2023-02-03T01:57:36.025Z,12.90
2023-02-03T02:00:09.444Z,11.80
2023-02-03T02:02:47.514Z,13.00
2023-02-03T02:05:21.525Z,12.40
2023-02-03T02:07:52.884Z,16.30
2023-02-03T02:10:23.747Z,15.50
2023-02-03T02:12:57.012Z,15.90
2023-02-03T02:18:08.742Z,15.20
2023-02-03T02:21:01.251Z,17.10
2023-02-03T02:23:45.560Z,13.90
2023-02-03T02:26:30.685Z,15.80
2023-02-03T02:29:15.023Z,15.80
2023-02-03T02:31:58.371Z,15.00
2023-02-03T02:34:36.160Z,11.70
2023-02-03T02:37:10.837Z,13.00
2023-02-03T02:39:47.189Z,11.30
2023-02-03T02:42:23.116Z,9.60
2023-02-03T02:44:57.968Z,13.00
2023-02-03T02:47:29.213Z,11.40
2023-02-03T02:50:02.741Z,16.20
2023-02-03T02:52:36.288Z,13.80
2023-02-03T02:55:10.461Z,12.90
2023-02-03T02:57:42.981Z,14.00
2023-02-03T03:00:16.219Z,13.20
2023-02-03T03:02:47.101Z,12.20
2023-02-03T03:05:19.265Z,14.80
2023-02-03T03:07:54.960Z,17.20
2023-02-03T03:10:28.076Z,16.00
2023-02-03T03:15:31.864Z,15.70
2023-02-03T03:18:08.510Z,20.50
2023-02-03T03:20:43.111Z,14.10
2023-02-03T03:23:17.733Z,12.60
2023-02-03T03:25:50.780Z,14.80
2023-02-03T03:28:24.267Z,15.30
2023-02-03T03:30:55.270Z,16.20
2023-02-03T03:33:26.196Z,14.10
2023-02-03T03:35:59.334Z,13.90
2023-02-03T03:38:33.905Z,13.50
2023-02-03T03:41:06.466Z,16.60
2023-02-03T03:43:42.640Z,14.20
2023-02-03T03:46:14.931Z,13.30
2023-02-03T03:48:50.619Z,13.00
2023-02-03T03:51:23.179Z,14.40
2023-02-03T03:53:55.345Z,14.90
2023-02-03T03:56:28.295Z,15.50
2023-02-03T03:59:01.277Z,15.90
2023-02-03T04:01:32.934Z,14.70
2023-02-03T04:04:04.614Z,16.90
2023-02-03T04:06:35.421Z,17.00
2023-02-03T04:09:06.264Z,13.50
2023-02-03T04:11:54.908Z,12.90
2023-02-03T04:14:26.223Z,15.10
2023-02-03T04:16:57.400Z,12.00
2023-02-03T04:19:28.704Z,15.50
2023-02-03T04:21:59.418Z,11.90
2023-02-03T04:24:30.550Z,12.20
2023-02-03T04:27:02.700Z,14.10
2023-02-03T04:29:34.360Z,11.50
2023-02-03T04:32:05.586Z,15.80
2023-02-03T04:34:36.735Z,14.70
2023-02-03T04:37:07.706Z,16.40
2023-02-03T04:39:38.400Z,15.60
2023-02-03T04:42:09.184Z,11.90
2023-02-03T04:44:40.286Z,14.40
2023-02-03T04:47:10.970Z,15.70
2023-02-03T04:49:41.846Z,15.40
2023-02-03T04:52:12.786Z,14.30
2023-02-03T04:54:44.126Z,12.90
2023-02-03T04:57:15.171Z,13.70
2023-02-03T04:59:46.382Z,18.60
2023-02-03T05:02:17.293Z,15.40
2023-02-03T05:04:47.986Z,11.10
2023-02-03T05:07:19.131Z,17.70
2023-02-03T05:09:50.169Z,14.20
2023-02-03T05:12:21.102Z,13.90
2023-02-03T05:14:52.069Z,15.10
2023-02-03T05:17:23.020Z,13.00
2023-02-03T05:19:54.033Z,13.60
2023-02-03T05:22:24.878Z,14.30
2023-02-03T05:24:55.913Z,15.50
2023-02-03T05:27:26.733Z,15.80
2023-02-03T05:29:57.785Z,15.50
2023-02-03T05:32:28.716Z,13.80
2023-02-03T05:34:59.490Z,13.80
2023-02-03T05:37:30.457Z,16.80
2023-02-03T05:40:15.243Z,15.50
2023-02-03T05:42:49.208Z,15.50
2023-02-03T05:45:20.192Z,14.60
2023-02-03T05:47:51.138Z,14.90
2023-02-03T05:50:22.996Z,19.40
2023-02-03T05:52:54.649Z,16.70
2023-02-03T05:55:25.597Z,14.20
2023-02-03T05:57:56.733Z,14.70
2023-02-03T06:00:29.334Z,19.00
2023-02-03T06:03:02.584Z,15.20
2023-02-03T06:05:34.774Z,15.40
2023-02-03T06:08:05.835Z,20.00
2023-02-03T06:10:36.997Z,19.80
2023-02-03T06:13:12.451Z,19.80
2023-02-03T06:15:44.030Z,17.60
2023-02-03T06:18:14.883Z,17.10
2023-02-03T06:20:45.617Z,14.70
2023-02-03T06:23:17.446Z,15.20
2023-02-03T06:25:49.043Z,13.30
2023-02-03T06:37:38.971Z,15.40
2023-02-03T06:40:10.970Z,15.40
2023-02-03T06:42:41.879Z,14.20
2023-02-03T06:45:12.966Z,15.20
2023-02-03T06:47:44.366Z,14.10
2023-02-03T06:50:16.126Z,14.80
2023-02-03T06:52:46.996Z,15.20
2023-02-03T06:55:17.612Z,15.50
2023-02-03T06:57:48.743Z,19.30
2023-02-03T07:00:20.416Z,15.40
2023-02-03T07:02:56.393Z,16.00
2023-02-03T07:05:29.097Z,14.30
2023-02-03T07:07:59.963Z,17.20
2023-02-03T07:10:34.480Z,15.60
2023-02-03T07:13:06.090Z,18.40
2023-02-03T07:15:37.251Z,14.40
2023-02-03T07:18:08.106Z,15.30
2023-02-03T07:20:38.846Z,16.40
2023-02-03T07:23:09.998Z,18.60
2023-02-03T07:25:40.814Z,16.60
2023-02-03T07:28:12.230Z,16.80
2023-02-03T07:30:42.809Z,18.10
2023-02-03T07:33:13.733Z,14.00
2023-02-03T07:35:44.474Z,19.10
2023-02-03T07:38:15.306Z,12.90
2023-02-03T07:40:46.033Z,13.50
2023-02-03T07:43:16.914Z,13.90
2023-02-03T07:45:47.560Z,11.30
2023-02-03T07:48:18.440Z,11.80
2023-02-03T07:50:51.029Z,13.20
2023-02-03T07:53:23.750Z,11.60
2023-02-03T07:55:54.428Z,14.00
2023-02-03T07:58:25.469Z,10.80
2023-02-03T08:00:56.097Z,11.40
2023-02-03T08:03:27.095Z,10.30
2023-02-03T08:05:58.089Z,10.50
2023-02-03T08:08:29.187Z,10.40
2023-02-03T08:11:00.483Z,9.60
2023-02-03T08:13:31.689Z,10.40
2023-02-03T08:16:02.351Z,9.50
2023-02-03T08:18:33.535Z,10.30
2023-02-03T08:21:05.043Z,8.80
2023-02-03T08:23:35.975Z,10.10
2023-02-03T08:26:06.822Z,11.00
2023-02-03T08:28:38.110Z,12.00
2023-02-03T08:31:12.718Z,9.30
2023-02-03T08:33:44.241Z,10.20
2023-02-03T08:36:14.868Z,11.40
2023-02-03T08:38:45.696Z,11.70
2023-02-03T08:41:18.121Z,10.10
2023-02-03T08:43:49.105Z,10.20
2023-02-03T08:46:19.746Z,9.90
2023-02-03T08:48:57.843Z,8.60
2023-02-03T08:51:29.092Z,8.00
2023-02-03T08:53:59.847Z,9.60
2023-02-03T08:56:30.974Z,10.30
2023-02-03T08:59:05.897Z,10.70
2023-02-03T09:01:41.305Z,9.10
2023-02-03T09:04:12.304Z,9.00
2023-02-03T09:06:42.934Z,8.80
2023-02-03T09:09:13.953Z,8.80
2023-02-03T09:11:45.195Z,9.60
2023-02-03T09:14:16.239Z,8.20
2023-02-03T09:16:47.187Z,9.50
2023-02-03T09:19:18.315Z,9.80
2023-02-03T09:21:53.877Z,8.00
2023-02-03T09:24:25.695Z,9.70
2023-02-03T09:26:56.673Z,9.70
2023-02-03T09:29:32.047Z,9.70
2023-02-03T09:32:07.881Z,11.40
2023-02-03T09:34:40.149Z,8.20
2023-02-03T09:37:11.016Z,9.10
2023-02-03T09:39:42.822Z,8.10
2023-02-03T09:42:26.182Z,11.20
2023-02-03T09:45:03.762Z,10.90
2023-02-03T09:47:36.197Z,9.60
2023-02-03T09:50:07.612Z,11.70
2023-02-03T09:52:40.250Z,10.10
2023-02-03T09:55:18.215Z,12.70
2023-02-03T09:57:51.760Z,9.20
2023-02-03T10:00:23.851Z,10.30
2023-02-03T10:02:57.417Z,11.60
2023-02-03T10:05:32.281Z,9.20
2023-02-03T10:08:08.933Z,9.40
2023-02-03T10:10:42.108Z,10.40
2023-02-03T10:16:14.049Z,8.70
2023-02-03T10:18:47.298Z,8.90
2023-02-03T10:21:21.024Z,10.70
2023-02-03T10:23:55.196Z,9.90
2023-02-03T10:26:27.919Z,8.70
2023-02-03T10:28:59.415Z,6.80
2023-02-03T10:31:36.011Z,9.70
2023-02-03T10:34:11.461Z,8.30
2023-02-03T10:36:47.079Z,7.40
2023-02-03T10:39:21.459Z,9.80
2023-02-03T10:41:52.270Z,9.50
2023-02-03T10:44:27.187Z,7.90
2023-02-03T10:46:58.653Z,8.30
2023-02-03T10:49:30.339Z,9.60
2023-02-03T10:52:05.100Z,10.10
2023-02-03T10:54:36.858Z,6.90
2023-02-03T10:57:08.706Z,9.30
2023-02-03T10:59:42.763Z,6.80
2023-02-03T11:04:43.325Z,9.30
2023-02-03T11:07:27.829Z,6.80
2023-02-03T11:09:58.871Z,7.30
2023-02-03T11:12:29.743Z,8.40
2023-02-03T11:15:06.379Z,10.70
2023-02-03T11:17:38.074Z,9.60
2023-02-03T11:20:15.726Z,7.70
2023-02-03T11:22:51.379Z,8.70
2023-02-03T11:25:27.866Z,8.50
2023-02-03T11:28:04.779Z,7.80
2023-02-03T11:30:35.961Z,8.00
2023-02-03T11:33:17.171Z,9.30
2023-02-03T11:35:57.573Z,10.00
2023-02-03T11:38:32.506Z,10.90
2023-02-03T11:41:07.823Z,9.60
2023-02-03T11:43:38.812Z,12.70
2023-02-03T11:46:10.060Z,9.50
2023-02-03T11:48:43.822Z,10.10
2023-02-03T11:51:20.176Z,8.00
2023-02-03T11:54:04.004Z,7.20
2023-02-03T11:56:42.277Z,7.60
2023-02-03T11:59:25.311Z,9.40
2023-02-03T12:02:16.612Z,10.30
2023-02-03T12:05:03.152Z,11.40
2023-02-03T12:07:50.183Z,12.40
2023-02-03T12:10:31.315Z,11.10
2023-02-03T12:13:04.808Z,12.70
2023-02-03T12:15:52.471Z,12.80
2023-02-03T12:18:26.905Z,12.00
2023-02-03T12:21:06.508Z,14.70
2023-02-03T12:23:43.997Z,11.90
2023-02-03T12:26:21.515Z,10.70
2023-02-03T12:28:59.717Z,13.20
2023-02-03T12:31:33.433Z,12.20
2023-02-03T12:34:08.190Z,13.00
2023-02-03T12:36:41.888Z,12.40
2023-02-03T12:39:17.405Z,11.80
2023-02-03T12:41:52.100Z,11.70
2023-02-03T12:44:25.220Z,10.40
2023-02-03T12:46:58.678Z,13.20
2023-02-03T12:49:33.540Z,12.50
2023-02-03T12:52:06.918Z,10.00
2023-02-03T12:54:40.525Z,10.90
2023-02-03T12:57:16.872Z,10.90
2023-02-03T12:59:51.307Z,14.10
2023-02-03T13:02:26.338Z,11.10
2023-02-03T13:04:59.577Z,13.20
2023-02-03T13:10:01.087Z,12.80
2023-02-03T13:12:33.319Z,11.30
2023-02-03T13:15:08.632Z,12.90
2023-02-03T13:17:45.163Z,9.90
2023-02-03T13:20:18.634Z,10.90
2023-02-03T13:22:49.917Z,8.20
2023-02-03T13:25:24.573Z,10.30
2023-02-03T13:28:00.890Z,9.50
2023-02-03T13:30:48.013Z,9.00
2023-02-03T13:33:44.444Z,9.30
2023-02-03T13:36:26.590Z,10.30
2023-02-03T13:39:10.846Z,7.00
2023-02-03T13:41:45.871Z,8.70
2023-02-03T13:44:18.202Z,8.50
2023-02-03T13:46:51.235Z,8.30
2023-02-03T13:49:25.664Z,7.10
2023-02-03T13:51:56.681Z,8.10
2023-02-03T13:54:30.067Z,7.20
2023-02-03T13:57:02.663Z,8.60
2023-02-03T13:59:41.535Z,9.00
2023-02-03T14:02:30.957Z,9.40
2023-02-03T14:05:03.413Z,10.10
2023-02-03T14:07:35.415Z,10.10
2023-02-03T14:10:16.631Z,9.90
2023-02-03T14:13:00.517Z,10.20
2023-02-03T14:15:33.278Z,11.00
2023-02-03T14:18:06.816Z,10.30
2023-02-03T14:20:41.799Z,10.00
2023-02-03T14:23:15.744Z,10.70
2023-02-03T14:25:48.340Z,10.70
2023-02-03T14:28:20.175Z,10.40
2023-02-03T14:31:17.826Z,11.90
2023-02-03T14:33:59.110Z,11.60
2023-02-03T14:37:01.857Z,12.00
2023-02-03T14:39:55.575Z,13.90
2023-02-03T14:42:33.077Z,12.50
2023-02-03T14:45:10.144Z,12.70
2023-02-03T14:47:48.774Z,12.60
2023-02-03T14:50:28.058Z,10.90
2023-02-03T14:53:09.184Z,10.30
2023-02-03T14:55:44.500Z,11.10
2023-02-03T14:58:24.618Z,8.30
2023-02-03T15:00:55.816Z,11.00
2023-02-03T15:03:28.210Z,10.40
2023-02-03T15:06:00.169Z,8.20
2023-02-03T15:08:47.220Z,9.70
2023-02-03T15:11:28.912Z,8.40
2023-02-03T15:14:15.135Z,7.80
2023-02-03T15:16:46.927Z,7.80
2023-02-03T15:19:19.485Z,7.70
2023-02-03T15:21:50.281Z,7.10
2023-02-03T15:24:24.032Z,7.40
2023-02-03T15:26:59.773Z,8.60
2023-02-03T15:29:32.438Z,6.90
2023-02-03T15:32:10.391Z,7.60
2023-02-03T15:34:44.845Z,7.30
2023-02-03T15:37:18.455Z,8.60
2023-02-03T15:39:53.913Z,7.90
2023-02-03T15:42:29.267Z,9.30
2023-02-03T15:45:02.434Z,8.00
2023-02-03T15:47:35.610Z,9.00
2023-02-03T15:50:21.281Z,8.30
2023-02-03T15:52:52.927Z,8.60
2023-02-03T15:55:29.165Z,8.60
2023-02-03T15:58:00.413Z,9.70
2023-02-03T16:00:36.851Z,10.40
2023-02-03T16:03:14.218Z,9.20
2023-02-03T16:05:49.096Z,9.90
2023-02-03T16:08:37.286Z,10.00
2023-02-03T16:11:27.880Z,10.40
2023-02-03T16:14:00.061Z,8.90
2023-02-03T16:16:33.122Z,9.10
2023-02-03T16:19:05.262Z,9.20
2023-02-03T16:21:44.222Z,12.70
2023-02-03T16:24:28.254Z,11.10
2023-02-03T16:27:19.371Z,7.70
2023-02-03T16:30:07.737Z,6.20
2023-02-03T16:32:56.575Z,7.20
2023-02-03T16:35:45.376Z,6.20
2023-02-03T16:38:35.094Z,9.40
2023-02-03T16:41:31.805Z,10.50
2023-02-03T16:44:20.833Z,7.90
2023-02-03T16:47:08.955Z,7.90
2023-02-03T16:49:57.407Z,9.20
2023-02-03T16:52:28.129Z,8.30
2023-02-03T16:54:58.965Z,11.80
2023-02-03T16:57:30.124Z,7.80
2023-02-03T17:00:01.116Z,9.60
2023-02-03T17:02:32.260Z,10.60
2023-02-03T17:05:03.438Z,13.30
2023-02-03T17:07:34.934Z,10.10
2023-02-03T17:10:11.278Z,10.80
2023-02-03T17:12:41.983Z,11.10
2023-02-03T17:15:13.347Z,9.90
2023-02-03T17:17:44.109Z,12.00
2023-02-03T17:20:15.048Z,9.90
2023-02-03T17:22:45.896Z,12.20
2023-02-03T17:25:17.908Z,11.90
2023-02-03T17:27:49.007Z,11.80
2023-02-03T17:30:20.093Z,14.70
2023-02-03T17:32:51.033Z,13.10
2023-02-03T17:35:21.965Z,14.30
2023-02-03T17:37:53.226Z,11.80
2023-02-03T17:54:29.046Z,14.00
2023-02-03T17:57:00.026Z,11.80
2023-02-03T17:59:31.162Z,10.90
2023-02-03T18:02:02.099Z,9.60
2023-02-03T18:04:33.259Z,11.70
2023-02-03T18:07:04.287Z,12.70
2023-02-03T18:09:35.124Z,12.60
2023-02-03T18:12:06.259Z,14.60
2023-02-03T18:14:37.089Z,11.90
2023-02-03T18:17:07.901Z,12.10
2023-02-03T18:19:41.188Z,14.40
2023-02-03T18:22:12.220Z,11.80
2023-02-03T18:24:45.133Z,15.50
2023-02-03T18:27:17.514Z,14.70
2023-02-03T18:29:49.520Z,20.90
2023-02-03T18:32:20.891Z,12.90
2023-02-03T18:34:51.993Z,14.10
2023-02-03T18:37:23.087Z,14.50
2023-02-03T18:39:54.257Z,16.30
2023-02-03T18:42:25.310Z,15.70
2023-02-03T18:44:56.908Z,16.10
2023-02-03T18:47:27.834Z,18.20
2023-02-03T18:49:58.672Z,15.80
2023-02-03T18:52:29.551Z,20.90
2023-02-03T18:55:00.578Z,18.90
2023-02-03T18:57:31.437Z,17.10
2023-02-03T19:00:02.808Z,19.30
2023-02-03T19:02:34.939Z,18.00
2023-02-03T19:05:06.246Z,12.80
2023-02-03T19:07:37.185Z,15.90
2023-02-03T19:10:08.901Z,15.50
2023-02-03T19:12:39.793Z,21.40
2023-02-03T19:15:11.665Z,22.80
2023-02-03T19:17:42.477Z,17.90
2023-02-03T19:20:14.182Z,17.90
2023-02-03T19:22:44.997Z,19.50
2023-02-03T19:25:16.022Z,22.30
2023-02-03T19:27:47.034Z,19.00
2023-02-03T19:30:18.063Z,17.50
2023-02-03T19:32:49.646Z,20.30
2023-02-03T19:35:20.586Z,19.20
2023-02-03T19:37:51.460Z,21.80
2023-02-03T19:40:22.460Z,19.00
2023-02-03T19:42:53.609Z,18.40
2023-02-03T19:45:24.642Z,16.20
2023-02-03T19:47:55.382Z,20.30
2023-02-03T19:50:26.258Z,18.10
2023-02-03T19:52:57.271Z,19.30
2023-02-03T19:55:31.129Z,18.80
2023-02-03T19:58:02.216Z,21.50
2023-02-03T20:00:33.458Z,22.80
2023-02-03T20:03:04.395Z,22.80
2023-02-03T20:05:35.398Z,25.70
2023-02-03T20:08:07.014Z,19.30
2023-02-03T20:10:37.823Z,21.90
2023-02-03T20:13:10.294Z,18.50
2023-02-03T20:15:41.048Z,23.30
2023-02-03T20:18:11.668Z,21.70
2023-02-03T20:20:42.841Z,20.30
2023-02-03T20:23:13.633Z,20.30
2023-02-03T20:25:45.087Z,25.20
2023-02-03T20:28:15.969Z,23.60
2023-02-03T20:30:48.122Z,21.00
2023-02-03T20:33:19.320Z,15.70
2023-02-03T20:35:51.002Z,18.40
2023-02-03T20:38:21.926Z,16.20
2023-02-03T20:40:53.077Z,18.00
2023-02-03T20:43:24.806Z,18.80
2023-02-03T20:45:56.070Z,17.40
2023-02-03T20:48:27.031Z,15.30
2023-02-03T20:50:57.886Z,16.00
2023-02-03T20:53:28.987Z,16.80
2023-02-03T20:56:01.917Z,17.10
2023-02-03T20:58:35.922Z,14.60
2023-02-03T21:01:10.630Z,13.80
2023-02-03T21:03:59.253Z,14.70
2023-02-03T21:06:31.985Z,14.30
2023-02-03T21:09:08.896Z,11.90
2023-02-03T21:11:39.702Z,11.40
2023-02-03T21:14:19.737Z,15.80
2023-02-03T21:16:51.422Z,14.70
2023-02-03T21:19:31.032Z,11.70
2023-02-03T21:22:03.074Z,14.80
2023-02-03T21:24:35.873Z,11.60
2023-02-03T21:27:19.916Z,12.40
2023-02-03T21:32:19.653Z,12.90
2023-02-03T21:34:50.661Z,14.30
2023-02-03T21:37:37.377Z,15.20
2023-02-03T21:40:27.615Z,10.30
2023-02-03T21:43:00.005Z,11.00
2023-02-03T21:45:38.967Z,12.60
2023-02-03T21:48:29.667Z,14.60
2023-02-03T21:51:03.670Z,14.10
2023-02-03T21:53:36.126Z,11.80
2023-02-03T21:56:16.857Z,10.60
2023-02-03T21:58:48.831Z,11.80
2023-02-03T22:01:21.175Z,12.70
2023-02-03T22:03:52.708Z,14.40
2023-02-03T22:06:25.064Z,13.20
2023-02-03T22:08:56.503Z,15.10
2023-02-03T22:11:27.799Z,12.90
2023-02-03T22:13:59.061Z,15.20
2023-02-03T22:16:30.447Z,12.60
2023-02-03T22:19:01.426Z,14.30
2023-02-03T22:21:32.339Z,21.90
2023-02-03T22:24:03.270Z,17.40
2023-02-03T22:26:34.046Z,18.90
2023-02-03T22:29:05.819Z,17.20
2023-02-03T22:31:36.886Z,17.50
2023-02-03T22:34:09.110Z,17.70
2023-02-03T22:36:40.321Z,14.90
2023-02-03T22:39:11.336Z,18.80
2023-02-03T22:41:42.124Z,16.10
2023-02-03T22:44:16.195Z,18.40
2023-02-03T22:46:46.781Z,18.20
2023-02-03T22:49:17.594Z,13.60
2023-02-03T22:51:48.499Z,15.70
2023-02-03T22:54:19.636Z,18.40
2023-02-03T22:56:50.526Z,18.20
2023-02-03T22:59:21.320Z,17.10
2023-02-03T23:01:51.940Z,15.40
2023-02-03T23:04:23.848Z,15.40
2023-02-03T23:06:54.630Z,16.00
2023-02-03T23:09:25.477Z,20.60
2023-02-03T23:11:56.209Z,15.90
2023-02-03T23:14:27.151Z,13.40
2023-02-03T23:16:58.085Z,14.80
2023-02-03T23:19:29.247Z,17.70
2023-02-03T23:22:00.678Z,14.80
2023-02-03T23:24:31.963Z,15.50
2023-02-03T23:27:02.761Z,15.90
2023-02-03T23:29:34.276Z,12.70
2023-02-03T23:32:05.143Z,15.50
2023-02-03T23:34:53.709Z,16.80
2023-02-03T23:37:25.283Z,17.20
2023-02-03T23:39:56.510Z,18.90
2023-02-03T23:42:27.291Z,18.60
2023-02-03T23:44:59.307Z,19.20
2023-02-03T23:47:30.349Z,19.90
2023-02-03T23:50:01.187Z,17.90
2023-02-03T23:52:35.940Z,21.90
2023-02-03T23:55:09.306Z,19.80
